Time;durP1;ratioP1;P1;durP2;ratioP2;P2;SDS_P1;SDS_P2;PMS_P1;PMS_P2;Temp;Humidity;BMP_temperature;BMP_pressure;BME280_temperature;BME280_humidity;BME280_pressure;Samples;Min_cycle;Max_cycle;Signal;HPM_P1;HPM_P2
2021/05/04 00:01:14;;;;;;;10.30;9.43;;;5.30;99.90;;;;;;5081352;28;20194;-75
2021/05/04 00:03:41;;;;;;;10.50;9.50;;;5.20;99.90;;;;;;5079947;28;20194;-75
2021/05/04 00:06:07;;;;;;;10.57;9.67;;;5.20;99.90;;;;;;5077055;28;20211;-75
2021/05/04 00:08:33;;;;;;;10.70;9.77;;;5.10;99.90;;;;;;5081150;28;20190;-75
2021/05/04 00:11:00;;;;;;;10.00;9.20;;;5.10;99.90;;;;;;5078695;28;20202;-75
2021/05/04 00:13:26;;;;;;;9.83;9.03;;;5.10;99.90;;;;;;5086274;28;20197;-75
2021/05/04 00:15:52;;;;;;;10.03;9.13;;;5.10;99.90;;;;;;5081462;28;20650;-75
2021/05/04 00:18:19;;;;;;;9.93;9.03;;;5.10;99.90;;;;;;5081298;28;20848;-75
2021/05/04 00:20:46;;;;;;;9.80;9.00;;;5.10;99.90;;;;;;5080088;28;20208;-75
2021/05/04 00:23:12;;;;;;;10.00;9.20;;;5.10;99.90;;;;;;5077874;28;20220;-75
2021/05/04 00:25:39;;;;;;;10.13;9.20;;;5.10;99.90;;;;;;5076250;28;21005;-75
2021/05/04 00:28:05;;;;;;;10.13;9.17;;;5.20;99.90;;;;;;5081595;28;20186;-75
2021/05/04 00:30:32;;;;;;;10.03;9.13;;;5.20;99.90;;;;;;5079533;28;20861;-75
2021/05/04 00:32:58;;;;;;;10.30;9.40;;;5.20;99.90;;;;;;5081408;28;20669;-75
2021/05/04 00:35:26;;;;;;;10.47;9.57;;;5.20;99.90;;;;;;5078793;28;20239;-75
2021/05/04 00:37:52;;;;;;;10.00;9.17;;;5.20;99.90;;;;;;5075031;28;20400;-75
2021/05/04 00:40:18;;;;;;;9.77;8.87;;;5.20;99.90;;;;;;5081619;28;20444;-75
2021/05/04 00:42:44;;;;;;;9.43;8.63;;;5.20;99.90;;;;;;5078876;28;20678;-75
2021/05/04 00:45:11;;;;;;;9.60;8.80;;;5.10;99.90;;;;;;5082736;28;20698;-75
2021/05/04 00:47:38;;;;;;;9.57;8.77;;;5.10;99.90;;;;;;5078153;28;20818;-75
2021/05/04 00:50:05;;;;;;;9.63;8.90;;;5.10;99.90;;;;;;5081736;28;20213;-75
2021/05/04 00:52:35;;;;;;;9.90;9.10;;;5.10;99.90;;;;;;5081253;28;20435;-75
2021/05/04 00:55:03;;;;;;;10.10;9.23;;;5.20;99.90;;;;;;5076682;28;21351;-75
2021/05/04 00:57:31;;;;;;;9.60;8.90;;;5.20;99.90;;;;;;5077940;28;20191;-75
2021/05/04 00:59:59;;;;;;;10.20;9.27;;;5.30;99.90;;;;;;5080493;28;20725;-75
2021/05/04 01:02:25;;;;;;;10.13;9.23;;;5.40;99.90;;;;;;5078152;28;20194;-75
2021/05/04 01:04:52;;;;;;;10.10;9.17;;;5.60;99.90;;;;;;5080260;28;20224;-75
2021/05/04 01:07:18;;;;;;;9.40;8.60;;;5.80;99.90;;;;;;5077954;28;20195;-75
2021/05/04 01:09:46;;;;;;;9.20;8.43;;;5.90;99.90;;;;;;5083101;28;20194;-75
2021/05/04 01:12:13;;;;;;;8.67;7.97;;;6.00;99.90;;;;;;5077522;28;20194;-75
2021/05/04 01:14:39;;;;;;;9.10;8.40;;;6.10;99.90;;;;;;5076592;28;20203;-75
2021/05/04 01:17:06;;;;;;;9.10;8.30;;;6.20;99.90;;;;;;5080681;28;20220;-75
2021/05/04 01:19:33;;;;;;;9.10;8.30;;;6.20;99.90;;;;;;5079266;28;20764;-75
2021/05/04 01:22:00;;;;;;;8.57;7.97;;;6.30;99.90;;;;;;5082481;28;20259;-76
2021/05/04 01:24:26;;;;;;;8.70;8.00;;;6.30;99.90;;;;;;5079941;28;20194;-75
2021/05/04 01:26:52;;;;;;;8.37;7.77;;;6.40;99.90;;;;;;5077627;28;20226;-75
2021/05/04 01:29:19;;;;;;;8.67;7.97;;;6.40;99.90;;;;;;5086228;28;20678;-75
2021/05/04 01:31:45;;;;;;;8.57;7.87;;;6.40;99.90;;;;;;5081022;28;20256;-75
2021/05/04 01:34:12;;;;;;;8.93;8.23;;;6.50;99.90;;;;;;5085015;28;20186;-75
2021/05/04 01:36:39;;;;;;;8.53;7.93;;;6.60;99.90;;;;;;5082591;28;20206;-75
2021/05/04 01:39:08;;;;;;;8.23;7.63;;;6.60;99.90;;;;;;5084549;28;20215;-75
2021/05/04 01:41:35;;;;;;;8.43;7.83;;;6.60;99.90;;;;;;5083021;28;20674;-75
2021/05/04 01:44:02;;;;;;;8.47;7.83;;;6.60;99.90;;;;;;5077007;28;20201;-75
2021/05/04 01:46:31;;;;;;;9.60;8.80;;;6.60;99.90;;;;;;5083109;28;20210;-75
2021/05/04 01:48:58;;;;;;;8.70;8.10;;;6.60;99.90;;;;;;5082628;28;20621;-76
2021/05/04 01:51:26;;;;;;;8.80;8.20;;;6.60;99.90;;;;;;5081750;28;20260;-75
2021/05/04 01:53:52;;;;;;;9.40;8.60;;;6.70;99.90;;;;;;5085639;28;20198;-75
2021/05/04 01:56:19;;;;;;;8.10;7.50;;;6.70;99.90;;;;;;5081639;28;20214;-75
2021/05/04 01:58:46;;;;;;;9.03;8.33;;;6.80;99.90;;;;;;5079357;28;20217;-75
2021/05/04 02:01:12;;;;;;;7.97;7.37;;;6.80;99.90;;;;;;5083102;28;20186;-75
2021/05/04 02:03:38;;;;;;;8.80;8.10;;;6.80;99.90;;;;;;5081043;28;20260;-75
2021/05/04 02:06:05;;;;;;;8.50;7.90;;;6.80;99.90;;;;;;5081403;28;20225;-75
2021/05/04 02:08:32;;;;;;;8.40;7.80;;;6.80;99.90;;;;;;5080982;28;20205;-75
2021/05/04 02:10:58;;;;;;;8.10;7.40;;;6.80;99.90;;;;;;5083147;28;20202;-75
2021/05/04 02:13:25;;;;;;;8.80;8.10;;;6.80;99.90;;;;;;5082495;28;20210;-75
2021/05/04 02:15:52;;;;;;;8.00;7.40;;;6.80;99.90;;;;;;5080125;28;20229;-75
2021/05/04 02:18:18;;;;;;;8.40;7.77;;;6.70;99.90;;;;;;5082988;28;20206;-75
2021/05/04 02:20:44;;;;;;;7.60;7.10;;;6.80;99.90;;;;;;5082304;28;20191;-74
2021/05/04 02:23:11;;;;;;;8.50;7.90;;;6.70;99.90;;;;;;5083717;28;20195;-76
2021/05/04 02:25:37;;;;;;;9.03;8.23;;;6.70;99.90;;;;;;5081743;28;20230;-75
2021/05/04 02:28:04;;;;;;;7.63;7.03;;;6.70;99.90;;;;;;5077919;28;20623;-75
2021/05/04 02:30:31;;;;;;;8.10;7.50;;;6.60;99.90;;;;;;5079373;28;20244;-75
2021/05/04 02:32:57;;;;;;;8.50;7.90;;;6.60;99.90;;;;;;5083000;28;20199;-75
2021/05/04 02:35:24;;;;;;;8.70;8.07;;;6.60;99.90;;;;;;5082506;28;20214;-75
2021/05/04 02:37:50;;;;;;;7.97;7.37;;;6.60;99.90;;;;;;5081102;28;20212;-75
2021/05/04 02:40:16;;;;;;;7.60;7.03;;;6.50;99.90;;;;;;5083720;28;20671;-75
2021/05/04 02:42:43;;;;;;;7.80;7.10;;;6.40;99.90;;;;;;5084907;28;20190;-75
2021/05/04 02:45:10;;;;;;;8.77;8.17;;;6.40;99.90;;;;;;5085031;28;20199;-77
2021/05/04 02:47:37;;;;;;;9.40;8.70;;;6.40;99.90;;;;;;5073331;28;20205;-77
2021/05/04 02:50:05;;;;;;;8.77;8.17;;;6.40;99.90;;;;;;5072508;28;20223;-78
2021/05/04 02:52:31;;;;;;;8.80;8.13;;;6.40;99.90;;;;;;5072940;28;20202;-78
2021/05/04 02:54:57;;;;;;;9.20;8.60;;;6.40;99.90;;;;;;5070961;28;20198;-77
2021/05/04 02:57:24;;;;;;;8.57;7.97;;;6.30;99.90;;;;;;5076328;28;20194;-78
2021/05/04 02:59:50;;;;;;;8.60;8.00;;;6.20;99.90;;;;;;5074973;28;20726;-78
2021/05/04 03:02:16;;;;;;;9.27;8.43;;;6.20;99.90;;;;;;5086193;28;20198;-77
2021/05/04 03:04:43;;;;;;;8.50;7.90;;;6.00;99.90;;;;;;5076708;28;20205;-77
2021/05/04 03:07:10;;;;;;;8.83;8.13;;;6.00;99.90;;;;;;5065041;28;20215;-77
2021/05/04 03:09:36;;;;;;;10.07;9.30;;;6.00;99.90;;;;;;5070066;28;20256;-77
2021/05/04 03:12:03;;;;;;;8.87;8.17;;;6.00;99.90;;;;;;5072569;28;20191;-77
2021/05/04 03:14:29;;;;;;;9.40;8.70;;;6.10;99.90;;;;;;5076932;28;20199;-77
2021/05/04 03:16:55;;;;;;;9.47;8.77;;;6.10;99.90;;;;;;5083982;28;20244;-78
2021/05/04 03:19:22;;;;;;;9.40;8.70;;;6.10;99.90;;;;;;5079569;28;20295;-78
2021/05/04 03:21:49;;;;;;;9.13;8.33;;;6.20;99.90;;;;;;5083146;28;20212;-78
2021/05/04 03:24:15;;;;;;;9.47;8.77;;;6.20;99.90;;;;;;5077505;28;20202;-79
2021/05/04 03:26:41;;;;;;;8.40;7.70;;;6.20;99.90;;;;;;5099458;22;20214;-75
2021/05/04 03:29:08;;;;;;;8.83;8.10;;;6.30;99.90;;;;;;5054470;28;20256;-78
2021/05/04 03:31:34;;;;;;;8.97;8.27;;;6.30;99.90;;;;;;5053677;28;20190;-78
2021/05/04 03:34:00;;;;;;;8.60;7.90;;;6.30;99.90;;;;;;5049585;28;20199;-76
2021/05/04 03:36:26;;;;;;;8.50;7.90;;;6.40;99.90;;;;;;5066676;28;20211;-78
2021/05/04 03:38:54;;;;;;;8.63;7.83;;;6.40;99.90;;;;;;5070072;28;20219;-79
2021/05/04 03:41:20;;;;;;;8.90;7.60;;;6.50;99.90;;;;;;5049115;28;20203;-78
2021/05/04 03:43:46;;;;;;;8.10;7.50;;;6.60;99.90;;;;;;5064102;28;20215;-79
2021/05/04 03:46:13;;;;;;;8.13;7.43;;;6.80;99.90;;;;;;5050032;28;20222;-78
2021/05/04 03:48:39;;;;;;;8.27;7.60;;;6.90;99.90;;;;;;5043850;28;20194;-78
2021/05/04 03:51:06;;;;;;;7.50;7.00;;;7.10;99.90;;;;;;5063914;28;20198;-78
2021/05/04 03:53:33;;;;;;;8.33;7.73;;;7.30;99.90;;;;;;5064063;28;20761;-77
2021/05/04 03:56:00;;;;;;;8.03;7.53;;;7.40;99.90;;;;;;5069935;28;20215;-79
2021/05/04 03:58:26;;;;;;;7.83;7.33;;;7.50;99.90;;;;;;5048479;28;20207;-78
2021/05/04 04:00:53;;;;;;;8.30;7.70;;;7.60;99.90;;;;;;5068096;28;20198;-78
2021/05/04 04:03:19;;;;;;;8.20;7.70;;;7.70;99.90;;;;;;5057410;28;20194;-76
2021/05/04 04:05:46;;;;;;;7.43;6.93;;;7.80;99.90;;;;;;5050304;28;20662;-75
2021/05/04 04:08:13;;;;;;;7.40;6.80;;;8.00;99.90;;;;;;5042063;28;20196;-75
2021/05/04 04:10:41;;;;;;;6.03;5.60;;;8.10;99.90;;;;;;5061400;28;20225;-76
2021/05/04 04:13:08;;;;;;;4.17;3.87;;;8.30;99.90;;;;;;5059972;28;20665;-75
2021/05/04 04:15:35;;;;;;;6.53;6.13;;;8.30;99.90;;;;;;5045911;28;20758;-81
2021/05/04 04:18:01;;;;;;;6.40;6.00;;;8.40;99.90;;;;;;5051326;28;20217;-82
2021/05/04 04:20:27;;;;;;;7.50;7.00;;;8.50;99.90;;;;;;5048282;28;20207;-81
2021/05/04 04:22:54;;;;;;;7.30;6.80;;;8.70;99.90;;;;;;5068714;28;20200;-81
2021/05/04 04:25:20;;;;;;;7.60;7.10;;;8.70;99.90;;;;;;5053229;28;20201;-82
2021/05/04 04:27:47;;;;;;;7.20;6.70;;;8.80;99.90;;;;;;5071681;28;20569;-81
2021/05/04 04:30:15;;;;;;;7.37;6.87;;;8.90;99.90;;;;;;5050985;28;20649;-81
2021/05/04 04:32:42;;;;;;;7.63;7.13;;;8.90;99.90;;;;;;5052865;28;20211;-81
2021/05/04 04:35:10;;;;;;;8.10;7.50;;;9.00;99.90;;;;;;5063493;28;20198;-80
2021/05/04 04:37:36;;;;;;;7.37;6.90;;;9.10;99.90;;;;;;5051679;28;20221;-82
2021/05/04 04:40:03;;;;;;;8.10;7.50;;;9.20;99.90;;;;;;5048284;28;20250;-81
2021/05/04 04:42:30;;;;;;;5.40;5.00;;;9.30;99.90;;;;;;5051027;28;20200;-80
2021/05/04 04:44:56;;;;;;;5.67;5.23;;;9.30;99.90;;;;;;5054015;28;20200;-80
2021/05/04 04:47:23;;;;;;;8.10;7.50;;;9.40;99.90;;;;;;5068027;28;20235;-81
2021/05/04 04:49:50;;;;;;;7.33;6.83;;;9.50;99.90;;;;;;5069216;28;20215;-81
2021/05/04 04:52:16;;;;;;;7.47;6.97;;;9.60;99.90;;;;;;5065985;28;20195;-81
2021/05/04 04:54:42;;;;;;;7.40;6.90;;;9.70;99.90;;;;;;5050228;28;20291;-81
2021/05/04 04:57:09;;;;;;;7.10;6.60;;;9.80;99.90;;;;;;5059672;28;20218;-81
2021/05/04 04:59:36;;;;;;;7.40;6.90;;;9.90;99.90;;;;;;5051349;28;20724;-81
2021/05/04 05:02:02;;;;;;;7.10;6.60;;;9.90;99.90;;;;;;5055736;28;20194;-81
2021/05/04 05:04:29;;;;;;;7.00;6.40;;;9.90;99.90;;;;;;5052893;28;20209;-78
2021/05/04 05:06:56;;;;;;;7.10;6.60;;;10.00;99.90;;;;;;5055904;28;20229;-78
2021/05/04 05:09:22;;;;;;;7.53;6.90;;;10.00;99.90;;;;;;5053130;28;20248;-78
2021/05/04 05:11:49;;;;;;;8.10;7.33;;;10.10;99.90;;;;;;5055077;28;20210;-79
2021/05/04 05:14:16;;;;;;;7.67;7.00;;;10.10;99.90;;;;;;5051810;28;20206;-79
2021/05/04 05:16:42;;;;;;;7.13;6.67;;;10.10;99.90;;;;;;5054293;28;20218;-79
2021/05/04 05:19:08;;;;;;;7.20;6.60;;;10.10;99.90;;;;;;5074619;28;20225;-79
2021/05/04 05:21:37;;;;;;;6.70;6.30;;;10.10;99.90;;;;;;5071553;28;20563;-79
2021/05/04 05:24:04;;;;;;;8.00;7.40;;;10.10;99.90;;;;;;5055428;28;20203;-79
2021/05/04 05:26:31;;;;;;;8.53;7.63;;;10.10;99.90;;;;;;5052086;28;20229;-79
2021/05/04 05:28:57;;;;;;;7.83;7.23;;;10.10;99.90;;;;;;5052647;28;20664;-79
2021/05/04 05:31:26;;;;;;;7.53;7.03;;;10.20;99.90;;;;;;5072600;28;20190;-79
2021/05/04 05:33:54;;;;;;;7.33;6.83;;;10.20;99.90;;;;;;5073221;28;20617;-79
2021/05/04 05:36:20;;;;;;;7.27;6.60;;;10.30;99.90;;;;;;5045534;28;20221;-79
2021/05/04 05:38:47;;;;;;;7.67;7.00;;;10.40;99.90;;;;;;5073423;28;20760;-80
2021/05/04 05:41:14;;;;;;;7.00;6.50;;;10.40;99.90;;;;;;5068199;28;20217;-80
2021/05/04 05:43:40;;;;;;;6.90;6.40;;;10.50;99.90;;;;;;5074542;28;20663;-80
2021/05/04 05:46:08;;;;;;;6.77;6.30;;;10.60;99.90;;;;;;5053002;28;20254;-79
2021/05/04 05:48:34;;;;;;;7.50;6.90;;;10.70;99.90;;;;;;5068586;28;20186;-80
2021/05/04 05:51:00;;;;;;;7.27;6.57;;;10.80;99.90;;;;;;5071716;28;20194;-80
2021/05/04 05:53:27;;;;;;;7.77;6.73;;;11.00;99.90;;;;;;5070488;28;20201;-80
2021/05/04 05:55:54;;;;;;;7.43;6.73;;;11.10;99.90;;;;;;5072677;28;20697;-80
2021/05/04 05:58:20;;;;;;;7.93;7.20;;;11.30;99.90;;;;;;5067734;28;20593;-80
2021/05/04 06:00:47;;;;;;;6.53;6.13;;;11.40;99.90;;;;;;5056030;28;20203;-80
2021/05/04 06:03:13;;;;;;;6.67;6.17;;;11.60;99.90;;;;;;5070836;28;20218;-80
2021/05/04 06:05:39;;;;;;;7.23;6.73;;;11.70;99.90;;;;;;5072851;28;20714;-80
2021/05/04 06:08:06;;;;;;;7.57;7.00;;;11.80;99.90;;;;;;5046496;28;20203;-80
2021/05/04 06:10:32;;;;;;;6.13;5.67;;;11.90;99.90;;;;;;5067144;28;20549;-80
2021/05/04 06:13:02;;;;;;;5.17;4.77;;;12.00;99.90;;;;;;5070691;28;20202;-80
2021/05/04 06:15:29;;;;;;;4.70;4.30;;;12.10;99.90;;;;;;5044769;28;20192;-80
2021/05/04 06:17:55;;;;;;;7.80;7.20;;;12.20;99.90;;;;;;5058507;28;20229;-80
2021/05/04 06:20:21;;;;;;;8.03;6.67;;;12.30;99.90;;;;;;5065429;28;20199;-80
2021/05/04 06:22:48;;;;;;;12.83;7.57;;;12.40;99.90;;;;;;5047450;28;20226;-80
2021/05/04 06:25:14;;;;;;;10.43;6.87;;;12.50;99.90;;;;;;5051439;28;20246;-80
2021/05/04 06:27:40;;;;;;;6.90;6.20;;;12.70;99.90;;;;;;5069760;28;20245;-80
2021/05/04 06:30:11;;;;;;;5.57;5.07;;;12.90;99.90;;;;;;5067233;28;20193;-80
2021/05/04 06:32:37;;;;;;;4.20;3.90;;;13.00;99.90;;;;;;5051512;28;20651;-80
2021/05/04 06:35:05;;;;;;;3.57;3.27;;;13.10;99.90;;;;;;5065013;28;20560;-80
2021/05/04 06:37:31;;;;;;;5.27;4.97;;;13.20;99.90;;;;;;5065121;28;20479;-80
2021/05/04 06:39:57;;;;;;;5.07;4.67;;;13.30;99.90;;;;;;5064995;28;20229;-81
2021/05/04 06:42:23;;;;;;;4.37;3.97;;;13.50;99.90;;;;;;5073375;28;20204;-80
2021/05/04 06:44:50;;;;;;;4.53;4.13;;;13.60;99.90;;;;;;5038931;28;20607;-80
2021/05/04 06:47:17;;;;;;;4.90;4.50;;;13.80;99.90;;;;;;5051155;28;20231;-80
2021/05/04 06:49:44;;;;;;;6.20;5.63;;;13.80;99.90;;;;;;5047078;28;20201;-80
2021/05/04 06:52:11;;;;;;;5.70;5.20;;;14.00;99.90;;;;;;5046950;28;20205;-81
2021/05/04 06:54:37;;;;;;;5.77;5.27;;;14.10;99.90;;;;;;5047775;28;20194;-80
2021/05/04 06:57:04;;;;;;;5.13;4.80;;;14.20;99.90;;;;;;5063840;28;20703;-80
2021/05/04 06:59:30;;;;;;;4.87;4.40;;;14.40;99.90;;;;;;5052847;28;20217;-80
2021/05/04 07:01:59;;;;;;;4.70;4.40;;;14.50;99.90;;;;;;5046742;28;20198;-80
2021/05/04 07:04:26;;;;;;;4.60;4.30;;;14.60;99.90;;;;;;5046631;28;20217;-80
2021/05/04 07:06:52;;;;;;;4.97;4.57;;;14.80;99.90;;;;;;5064255;28;20235;-81
2021/05/04 07:09:18;;;;;;;6.20;5.20;;;15.00;99.60;;;;;;5049946;28;20234;-80
2021/05/04 07:11:45;;;;;;;5.70;5.30;;;15.10;99.40;;;;;;5044688;28;20192;-80
2021/05/04 07:14:11;;;;;;;5.57;5.27;;;15.20;99.00;;;;;;5066875;28;20548;-81
2021/05/04 07:16:39;;;;;;;9.67;5.70;;;15.20;99.10;;;;;;5068741;28;20226;-80
2021/05/04 07:19:06;;;;;;;5.40;5.00;;;15.20;98.50;;;;;;5042514;28;20590;-81
2021/05/04 07:21:33;;;;;;;6.13;5.50;;;15.30;97.70;;;;;;5049787;28;20190;-80
2021/05/04 07:24:00;;;;;;;6.37;5.83;;;15.40;98.00;;;;;;5064200;28;20195;-80
2021/05/04 07:26:27;;;;;;;6.87;6.37;;;15.60;97.80;;;;;;5062461;28;20230;-80
2021/05/04 07:28:53;;;;;;;7.07;6.50;;;15.80;97.50;;;;;;5068476;28;20282;-80
2021/05/04 07:31:19;;;;;;;6.93;6.43;;;15.90;97.00;;;;;;5071069;28;20200;-80
2021/05/04 07:33:46;;;;;;;4.60;4.30;;;16.00;96.60;;;;;;5049654;28;20205;-80
2021/05/04 07:36:12;;;;;;;4.97;4.57;;;16.00;96.20;;;;;;5072112;28;20213;-81
2021/05/04 07:38:39;;;;;;;6.20;5.70;;;16.30;96.10;;;;;;5045986;28;20213;-81
2021/05/04 07:41:08;;;;;;;5.73;5.10;;;16.70;95.70;;;;;;5046112;28;20209;-81
2021/05/04 07:43:35;;;;;;;8.40;5.37;;;16.70;95.20;;;;;;5065528;28;20275;-81
2021/05/04 07:46:01;;;;;;;7.67;7.07;;;16.80;94.80;;;;;;5069803;28;20240;-81
2021/05/04 07:48:28;;;;;;;7.03;6.53;;;17.00;94.60;;;;;;5050412;28;20250;-81
2021/05/04 07:50:55;;;;;;;8.37;6.30;;;17.20;94.00;;;;;;5064998;28;20207;-81
2021/05/04 07:53:21;;;;;;;6.80;6.30;;;17.40;93.70;;;;;;5047666;28;20196;-80
2021/05/04 07:55:49;;;;;;;4.37;4.07;;;17.70;93.50;;;;;;5046958;28;20218;-80
2021/05/04 07:58:15;;;;;;;3.60;3.13;;;17.50;92.90;;;;;;5050300;28;20817;-80
2021/05/04 08:00:41;;;;;;;2.70;2.47;;;17.40;94.30;;;;;;5063731;28;20225;-80
2021/05/04 08:03:08;;;;;;;2.60;2.40;;;17.50;93.70;;;;;;5064788;28;20252;-81
2021/05/04 08:05:34;;;;;;;5.70;3.17;;;17.50;94.00;;;;;;5044509;28;20221;-81
2021/05/04 08:08:00;;;;;;;2.50;2.30;;;17.50;93.60;;;;;;5039693;28;20217;-81
2021/05/04 08:10:27;;;;;;;5.00;4.60;;;17.50;93.20;;;;;;5045944;28;20291;-81
2021/05/04 08:12:54;;;;;;;7.97;5.80;;;17.40;93.00;;;;;;5045769;28;20196;-81
2021/05/04 08:15:22;;;;;;;5.70;5.20;;;17.30;93.80;;;;;;5048443;28;20222;-81
2021/05/04 08:17:54;;;;;;;7.00;6.40;;;17.30;93.60;;;;;;5050156;28;20201;-81
2021/05/04 08:20:21;;;;;;;6.70;6.30;;;17.50;93.30;;;;;;5063375;28;20214;-81
2021/05/04 08:22:47;;;;;;;7.30;6.80;;;17.60;93.20;;;;;;5044989;28;20203;-81
2021/05/04 08:25:14;;;;;;;5.13;4.73;;;17.70;92.70;;;;;;5041987;28;20213;-81
2021/05/04 08:27:40;;;;;;;4.03;3.67;;;17.80;93.30;;;;;;5049700;28;20202;-81
2021/05/04 08:30:09;;;;;;;4.33;3.80;;;18.00;93.00;;;;;;5062992;28;20191;-81
2021/05/04 08:32:35;;;;;;;6.77;6.17;;;18.10;93.00;;;;;;5048776;28;20193;-81
2021/05/04 08:35:01;;;;;;;4.53;4.17;;;18.10;92.60;;;;;;5045375;28;20202;-81
2021/05/04 08:37:27;;;;;;;5.87;5.30;;;18.20;92.90;;;;;;5062932;28;20214;-80
2021/05/04 08:39:54;;;;;;;5.30;4.30;;;18.20;93.70;;;;;;5063448;28;20264;-81
2021/05/04 08:42:20;;;;;;;7.73;4.40;;;18.10;93.40;;;;;;5066152;28;20199;-81
2021/05/04 08:44:52;;;;;;;6.87;6.10;;;18.10;93.60;;;;;;5068259;28;20202;-81
2021/05/04 08:47:20;;;;;;;6.50;6.00;;;18.00;92.90;;;;;;5046641;28;20222;-80
2021/05/04 08:49:47;;;;;;;6.60;6.20;;;18.10;92.90;;;;;;5063026;28;20714;-80
2021/05/04 08:52:13;;;;;;;8.90;7.97;;;18.30;92.90;;;;;;5044888;28;20194;-81
2021/05/04 08:54:40;;;;;;;7.00;6.43;;;18.20;92.30;;;;;;5045754;28;20195;-81
2021/05/04 08:57:07;;;;;;;8.37;2.83;;;18.20;93.00;;;;;;5059372;28;20563;-80
2021/05/04 08:59:33;;;;;;;7.63;2.80;;;18.20;92.40;;;;;;5043784;28;20271;-80
2021/05/04 09:02:03;;;;;;;6.03;2.40;;;18.30;91.70;;;;;;5064901;28;20198;-80
2021/05/04 09:04:35;;;;;;;14.37;3.50;;;18.30;91.80;;;;;;5048024;28;20654;-81
2021/05/04 09:07:17;;;;;;;5.73;2.60;;;18.30;92.20;;;;;;5044739;28;20228;-80
2021/05/04 09:10:08;;;;;;;14.50;2.53;;;18.30;92.50;;;;;;5062826;28;20665;-80
2021/05/04 09:12:40;;;;;;;3.73;2.37;;;18.40;92.50;;;;;;5062924;28;20195;-81
2021/05/04 09:18:37;;;;;;;3.73;2.57;;;18.30;92.00;;;;;;5059459;28;20205;-80
2021/05/04 09:21:06;;;;;;;8.10;2.57;;;18.40;93.10;;;;;;5062531;28;20206;-81
2021/05/04 09:23:32;;;;;;;2.87;2.57;;;18.90;92.70;;;;;;5061391;28;20198;-81
2021/05/04 09:25:59;;;;;;;6.57;2.30;;;19.30;91.90;;;;;;5068653;22;20249;-75
2021/05/04 09:28:25;;;;;;;4.73;2.17;;;19.60;91.10;;;;;;5070103;28;20629;-75
2021/05/04 09:30:53;;;;;;;8.33;4.20;;;20.00;89.80;;;;;;5063477;28;20207;-75
2021/05/04 09:33:19;;;;;;;4.37;3.60;;;20.40;90.00;;;;;;5070656;28;20577;-75
2021/05/04 09:35:46;;;;;;;4.67;3.20;;;20.40;88.90;;;;;;5069336;28;20200;-75
2021/05/04 09:38:14;;;;;;;5.67;4.30;;;20.60;90.20;;;;;;5070557;28;20189;-76
2021/05/04 09:40:42;;;;;;;4.47;3.90;;;20.80;89.90;;;;;;5070585;28;20185;-75
2021/05/04 09:43:11;;;;;;;3.57;3.03;;;21.00;90.30;;;;;;5072885;28;20194;-75
2021/05/04 09:45:39;;;;;;;4.20;3.90;;;21.30;89.00;;;;;;5068959;28;20209;-75
2021/05/04 09:48:17;;;;;;;6.57;4.30;;;21.40;87.90;;;;;;5073935;28;20226;-75
2021/05/04 09:50:48;;;;;;;4.83;4.23;;;21.40;88.50;;;;;;5072973;28;20206;-76
2021/05/04 09:53:21;;;;;;;5.27;3.90;;;21.30;87.80;;;;;;5074137;28;20194;-76
2021/05/04 09:55:53;;;;;;;4.87;4.47;;;21.30;88.40;;;;;;5072452;28;20659;-76
2021/05/04 09:58:34;;;;;;;6.70;4.40;;;21.30;86.30;;;;;;5074233;28;20194;-75
2021/05/04 10:01:01;;;;;;;4.90;4.50;;;21.00;84.80;;;;;;5073999;28;20583;-75
2021/05/04 10:03:28;;;;;;;4.30;4.00;;;20.70;85.20;;;;;;5073635;28;20200;-75
2021/05/04 10:05:57;;;;;;;4.13;3.83;;;20.60;86.60;;;;;;5072471;28;20253;-75
2021/05/04 10:08:27;;;;;;;4.40;4.00;;;20.70;85.70;;;;;;5073668;28;20193;-75
2021/05/04 10:10:54;;;;;;;4.07;3.77;;;21.00;87.40;;;;;;5072466;28;20205;-75
2021/05/04 10:13:20;;;;;;;6.87;6.37;;;21.20;85.30;;;;;;5073774;28;20198;-75
2021/05/04 10:15:47;;;;;;;6.50;6.03;;;21.40;86.70;;;;;;5073596;28;20221;-75
2021/05/04 10:18:14;;;;;;;6.80;6.30;;;21.60;86.30;;;;;;5072175;28;20663;-75
2021/05/04 10:20:42;;;;;;;7.00;6.43;;;21.70;83.90;;;;;;5072263;28;20201;-75
2021/05/04 10:23:12;;;;;;;4.43;4.07;;;21.40;83.50;;;;;;5065430;28;20202;-75
2021/05/04 10:25:41;;;;;;;3.90;3.60;;;21.50;84.70;;;;;;5073531;28;20190;-75
2021/05/04 10:28:08;;;;;;;7.63;4.10;;;21.50;84.70;;;;;;5073133;28;20592;-75
2021/05/04 10:30:35;;;;;;;5.83;4.60;;;21.60;84.60;;;;;;5064265;28;20208;-75
2021/05/04 10:33:08;;;;;;;5.07;4.30;;;21.60;83.40;;;;;;5073341;28;20240;-75
2021/05/04 10:35:37;;;;;;;4.77;4.40;;;21.60;83.60;;;;;;5073441;28;20264;-75
2021/05/04 10:38:05;;;;;;;5.27;4.40;;;21.60;83.70;;;;;;5071696;28;20226;-75
2021/05/04 10:40:34;;;;;;;4.50;4.20;;;21.50;83.30;;;;;;5071817;28;20214;-75
2021/05/04 10:43:02;;;;;;;4.30;3.90;;;21.40;85.30;;;;;;5072888;28;20663;-75
2021/05/04 10:45:39;;;;;;;6.60;4.00;;;21.40;84.50;;;;;;5073340;28;20198;-75
2021/05/04 10:48:06;;;;;;;3.83;3.53;;;21.40;83.60;;;;;;5063457;28;20218;-75
2021/05/04 10:50:50;;;;;;;4.10;3.80;;;21.30;83.90;;;;;;5073066;28;20191;-75
2021/05/04 10:53:17;;;;;;;4.10;3.80;;;21.40;85.20;;;;;;5067802;28;20194;-75
2021/05/04 10:56:17;;;;;;;4.00;3.80;;;21.50;85.60;;;;;;5072540;28;20189;-75
2021/05/04 10:58:49;;;;;;;4.73;4.20;;;21.40;85.00;;;;;;5002469;28;20225;-75
2021/05/04 11:01:18;;;;;;;4.57;3.93;;;21.40;82.30;;;;;;4989940;28;20201;-75
2021/05/04 11:03:46;;;;;;;3.50;3.30;;;20.80;81.50;;;;;;5045050;28;20207;-76
2021/05/04 11:06:14;;;;;;;3.53;3.27;;;20.50;83.00;;;;;;5071382;28;20268;-75
2021/05/04 11:09:23;;;;;;;3.87;3.40;;;20.30;82.80;;;;;;5072504;28;20183;-75
2021/05/04 11:11:51;;;;;;;7.27;6.67;;;20.10;83.70;;;;;;5054817;28;20206;-75
2021/05/04 11:14:27;;;;;;;6.70;6.20;;;20.20;83.50;;;;;;5072363;28;20191;-75
2021/05/04 11:17:21;;;;;;;8.77;6.00;;;20.20;83.80;;;;;;5071241;28;20255;-75
2021/05/04 11:19:49;;;;;;;6.60;6.03;;;19.90;83.10;;;;;;5069633;28;20582;-75
2021/05/04 11:22:24;;;;;;;6.67;6.17;;;19.80;84.00;;;;;;5072826;28;20602;-75
2021/05/04 11:24:52;;;;;;;6.67;6.07;;;19.60;84.40;;;;;;5072307;28;20304;-75
2021/05/04 11:27:30;;;;;;;6.83;6.23;;;19.60;85.40;;;;;;5077946;28;20225;-75
2021/05/04 11:30:01;;;;;;;9.57;6.57;;;19.80;85.90;;;;;;5071020;28;20196;-75
2021/05/04 11:32:43;;;;;;;6.63;6.13;;;19.80;83.90;;;;;;5072027;28;20258;-75
2021/05/04 11:35:10;;;;;;;6.67;6.27;;;19.80;83.30;;;;;;5055979;28;20592;-76
2021/05/04 11:37:44;;;;;;;7.00;6.50;;;20.00;83.80;;;;;;5072064;28;20216;-75
2021/05/04 11:40:16;;;;;;;7.03;6.63;;;20.20;82.80;;;;;;5062831;28;20222;-75
2021/05/04 11:42:44;;;;;;;7.03;6.50;;;19.90;81.50;;;;;;5067467;28;20208;-75
2021/05/04 11:45:14;;;;;;;7.20;6.60;;;19.90;83.20;;;;;;5070771;28;20221;-76
2021/05/04 11:47:42;;;;;;;7.20;6.70;;;19.80;83.70;;;;;;5071487;28;20224;-74
2021/05/04 11:50:12;;;;;;;7.90;6.17;;;19.80;83.60;;;;;;5062579;28;20217;-76
2021/05/04 11:52:40;;;;;;;7.00;6.50;;;20.00;84.80;;;;;;5071853;28;20250;-75
2021/05/04 11:55:10;;;;;;;7.00;6.50;;;20.00;85.40;;;;;;5070570;28;20193;-75
2021/05/04 11:57:38;;;;;;;7.00;6.50;;;20.10;84.60;;;;;;5071542;28;20692;-75
2021/05/04 12:00:06;;;;;;;8.07;6.60;;;19.90;85.30;;;;;;5071234;28;20210;-75
2021/05/04 12:02:39;;;;;;;6.80;6.30;;;19.90;85.40;;;;;;5071732;28;20197;-75
2021/05/04 12:05:07;;;;;;;6.70;6.20;;;19.80;85.70;;;;;;5070985;28;20679;-75
2021/05/04 12:07:37;;;;;;;6.40;6.00;;;19.80;85.90;;;;;;5071049;28;20211;-75
2021/05/04 12:10:05;;;;;;;7.33;6.60;;;20.00;87.20;;;;;;5071713;28;20196;-75
2021/05/04 12:12:43;;;;;;;8.17;6.70;;;19.80;85.30;;;;;;5071457;28;20681;-75
2021/05/04 12:15:11;;;;;;;7.50;6.80;;;19.60;87.80;;;;;;5062312;28;20191;-76
2021/05/04 12:17:38;;;;;;;6.97;6.37;;;19.30;86.90;;;;;;5071457;28;20696;-75
2021/05/04 12:20:10;;;;;;;6.93;6.43;;;19.10;87.30;;;;;;5071368;28;20218;-75
2021/05/04 12:22:44;;;;;;;6.70;6.20;;;18.90;87.80;;;;;;5063565;28;20201;-75
2021/05/04 12:25:12;;;;;;;7.03;6.33;;;18.90;87.80;;;;;;5063298;28;20547;-75
2021/05/04 12:27:39;;;;;;;6.87;6.20;;;19.00;88.30;;;;;;5069855;28;20301;-75
2021/05/04 12:30:09;;;;;;;9.70;6.60;;;19.10;87.30;;;;;;5069877;28;20219;-75
2021/05/04 12:32:35;;;;;;;6.57;6.03;;;19.20;88.30;;;;;;5069864;28;20576;-75
2021/05/04 12:35:17;;;;;;;7.10;6.50;;;19.20;86.40;;;;;;5070056;28;20196;-75
2021/05/04 12:37:44;;;;;;;7.27;6.60;;;19.40;87.20;;;;;;5067681;28;20220;-75
2021/05/04 12:40:18;;;;;;;7.43;6.57;;;19.50;88.00;;;;;;5071292;28;20616;-75
2021/05/04 12:42:47;;;;;;;8.10;6.40;;;19.60;87.60;;;;;;5070041;28;20212;-75
2021/05/04 12:45:15;;;;;;;6.57;6.07;;;19.80;88.70;;;;;;5071408;28;20191;-75
2021/05/04 12:47:52;;;;;;;6.53;6.03;;;19.70;87.40;;;;;;5069681;28;20234;-76
2021/05/04 12:50:32;;;;;;;6.33;5.93;;;19.70;86.70;;;;;;5064364;28;20296;-75
2021/05/04 12:53:01;;;;;;;6.40;5.90;;;19.70;87.10;;;;;;5066389;28;20204;-75
2021/05/04 12:55:27;;;;;;;6.60;6.00;;;19.80;87.70;;;;;;5071183;28;20665;-75
2021/05/04 12:58:10;;;;;;;11.07;6.70;;;19.60;86.60;;;;;;5071010;28;20213;-75